Weather observations for the past three days for
Holland - West Michigan Regional Airport
Imperial (Metric)
Date Time (edt) Wind (mph) Vis. (mi.) Weather Sky Cond. Temperature (ºF) Relative Humidity Wind Chill (°F) Heat Index (°F) Pressure Precipitation (in)
Air Dwpt 6 hour altimeter (in) sea level (mb) 1 hr 3 hr 6 hr
Max. Min.
03 12:53 W 8 10.00 Fair CLR 79 73 82% 82 29.95 1013.7
03 11:53 SW 12 10.00 Fair CLR 82 73 74% 87 29.93 1013.0
03 10:53 SW 7 10.00 Fair CLR 82 73.9 77% 88 29.95 1013.6
03 09:53 S 5 10.00 Fair CLR 82 75 79% 89 29.93 1012.9
03 08:53 S 6 9.00 A Few Clouds FEW090 77 73.9 90% 78 29.94 1013.3
03 07:53 Calm 4.00 Fog/Mist BKN090 BKN120 73 72 73.9 71.1 96% 29.95 1013.8
03 06:53 S 3 4.00 Fog/Mist SCT090 SCT110 72 72 100% 29.94 1013.3
03 05:53 Calm 3.00 Fog/Mist SCT070 BKN110 71.1 71.1 100% 29.94 1013.2
03 04:53 Calm 5.00 Fog/Mist FEW110 71.1 70 96% 29.94 1013.2
03 03:53 Calm 9.00 Mostly Cloudy BKN110 72 71.1 97% 29.94 1013.2
03 02:53 Calm 10.00 Partly Cloudy SCT110 73.9 71.1 91% 29.94 1013.1
03 01:53 Calm 10.00 A Few Clouds FEW110 73 71.1 80.1 73 94% 29.93 1012.9
03 00:53 Calm 10.00 Mostly Cloudy BKN110 75 71.1 88% 75 29.93 1012.8
02 23:53 Calm 10.00 A Few Clouds FEW110 75 72 90% 74 29.92 1012.7
02 22:53 Calm 10.00 Mostly Cloudy BKN100 77 72 85% 78 29.92 1012.7
02 21:53 Calm 10.00 Mostly Cloudy BKN110 77 72 85% 78 29.92 1012.7
02 20:53 SW 5 10.00 A Few Clouds FEW110 78.1 72 82% 80 29.9 1012.1
02 19:53 SW 6 10.00 Partly Cloudy SCT110 80.1 72 90 80.1 76% 84 29.9 1012.1
02 18:53 W 6 10.00 Fair CLR 82 72 72% 87 29.91 1012.2
02 17:53 W 14 G 21 10.00 Partly Cloudy SCT100 87.1 72 61% 94 29.9 1012.0
02 16:53 W 12 10.00 Partly Cloudy SCT110 87.1 70 57% 92 29.91 1012.3
02 15:53 SW 12 10.00 Fair CLR 90 70 52% 95 29.92 1012.5
02 14:53 SW 10 G 22 10.00 Partly Cloudy SCT100 88 72 59% 95 29.93 1012.8
02 13:53 SW 14 10.00 A Few Clouds FEW090 87.1 72 87.1 73.9 61% 94 29.94 1013.4
02 12:53 SW 9 10.00 A Few Clouds FEW100 84 73.9 72% 91 29.96 1014.0
02 11:53 S 5 10.00 Fair CLR 82.9 73.9 74% 89 29.96 1014.1
02 10:53 SW 6 10.00 Fair CLR 81 72 74% 85 29.97 1014.2
02 09:53 W 7 10.00 A Few Clouds FEW100 80.1 73.9 82% 85 29.97 1014.5
02 08:53 S 8 10.00 Fair CLR 75.9 72 88% 76 29.96 1014.0
02 07:53 S 3 8.00 Overcast OVC100 73.9 71.1 78.1 73 91% 29.97 1014.4
02 06:53 Calm 10.00 Fair CLR 73.9 71.1 91% 29.96 1014.1
02 05:53 SW 5 10.00 Fair CLR 75 71.1 88% 75 29.97 1014.2
02 04:53 SW 7 10.00 Fair CLR 75 72 90% 74 29.96 1014.0
02 03:53 W 7 10.00 Fair CLR 75.9 72 88% 76 29.95 1013.6
02 02:53 W 9 10.00 Mostly Cloudy BKN110 78.1 73 85% 81 29.95 1013.6
02 01:53 SW 8 10.00 Mostly Cloudy BKN100 BKN120 78.1 73.9 79 72 87% 81 29.94 1013.4
02 00:53 W 6 10.00 NULL NULL 78.1 73.9 87% 81 29.94 1013.3
01 23:53 Calm 2.50 Fog/Mist FEW110 73 73 100% 29.95 1013.9
01 22:53 Calm 2.00 Fog/Mist NULL 73 73 100% 29.96 1013.9
01 21:53 Calm 8.00 NULL NULL 73.9 73 97% 29.96 1013.9
01 20:53 NE 3 9.00 A Few Clouds FEW100 75 73 94% 73 29.93 1013.2
01 19:53 W 8 10.00 Light Rain FEW060 BKN110 77 73 84.9 75.9 88% 78 29.96 1014.3 0.04 0.05
01 18:53 Vrbl 6 5.00 Thunderstorm Rain Fog/Mist BKN110 77 73 88% 78 29.97 1014.6 0.01
01 17:53 SW 7 10.00 Mostly Cloudy BKN110 78.1 73 85% 81 29.97 1014.5
01 16:53 W 9 10.00 Fair CLR 80.1 72 76% 84 29.96 1014.2
01 15:53 SW 15 10.00 Fair CLR 84.9 75 72% 93 29.96 1013.9
01 14:53 SW 8 10.00 Fair CLR 84 75 74% 92 29.96 1014.0
01 13:53 SW 10 10.00 Partly Cloudy FEW036 SCT110 81 73 84 71.1 77% 86 29.97 1014.4
01 12:53 W 8 10.00 Fair CLR 81 73.9 79% 86 29.98 1014.8
01 11:53 W 8 10.00 Fair CLR 81 73.9 79% 86 29.98 1014.5
01 10:53 W 9 10.00 Fair CLR 81 73.9 79% 86 29.98 1014.6
01 09:53 W 9 10.00 Fair CLR 79 73 82% 82 29.97 1014.5
01 08:53 S 3 10.00 A Few Clouds FEW120 75 72 90% 74 29.97 1014.3
01 07:53 S 3 7.00 Fair CLR 71.1 69.1 75 69.1 94% 29.95 1013.8
01 06:53 S 3 7.00 Fair CLR 69.1 68 96% 29.95 1013.7
01 05:53 S 3 9.00 Fair CLR 71.1 69.1 94% 29.94 1013.5
01 04:53 Calm 9.00 Fair CLR 71.1 70 96% 29.94 1013.2
01 03:53 S 3 10.00 Fair CLR 72 70 94% 29.94 1013.2
01 02:53 SW 3 10.00 Fair CLR 73 71.1 94% 29.94 1013.2
01 01:53 SW 6 10.00 Fair CLR 75 71.1 78.1 73 88% 75 29.94 1013.5
01 00:53 W 6 10.00 Fair CLR 75 71.1 88% 75 29.95 1013.6
31 23:53 W 7 10.00 Fair CLR 77 71.1 82% 79 29.95 1013.6
31 22:53 SW 3 10.00 Fair CLR 75 70 84% 75 29.94 1013.4
31 21:53 Calm 10.00 Fair CLR 73.9 70 88% 29.96 1014.1
31 20:53 S 3 10.00 Fair CLR 75.9 69.1 79% 77 29.94 1013.4
31 19:53 W 8 10.00 Fair CLR 78.1 70 86 78.1 76% 80 29.94 1013.2
31 18:53 SW 10 10.00 Fair CLR 81 70 69% 84 29.93 1013.1
31 17:53 S 13 10.00 A Few Clouds FEW100 82 69.1 65% 85 29.92 1012.6
31 16:53 SW 13 G 22 10.00 Mostly Cloudy BKN100 84 66.9 57% 87 29.92 1012.7
31 15:53 S 7 10.00 Mostly Cloudy BKN100 84 69.1 61% 88 29.94 1013.2
31 14:53 SE 7 10.00 Mostly Cloudy FEW070 BKN095 84 70 63% 88 29.94 1013.3
31 13:53 S 7 10.00 Fair CLR 80.1 70 80.1 71.1 71% 83 29.95 1013.6 0.05
Date Time (edt) Wind (mph) Vis. (mi.) Weather Sky Cond. Air Dwpt Max. Min. Relative Humidity Wind Chill (°F) Heat Index (°F) altimeter (in) sea level (mb) 1 hr 3 hr 6 hr
6 hour
Temperature (ºF) Pressure Precipitation (in)